createdAt,value
2019-05-30T00:00:16.536Z,99.90
2019-05-30T00:02:37.009Z,99.90
2019-05-30T00:05:05.165Z,99.90
2019-05-30T00:07:32.878Z,99.90
2019-05-30T00:10:00.554Z,99.90
2019-05-30T00:12:28.056Z,99.90
2019-05-30T00:14:56.426Z,99.90
2019-05-30T00:17:23.936Z,99.90
2019-05-30T00:19:51.191Z,99.90
2019-05-30T00:22:18.339Z,99.90
2019-05-30T00:24:45.489Z,99.90
2019-05-30T00:27:12.567Z,99.90
2019-05-30T00:29:39.806Z,99.90
2019-05-30T00:32:09.150Z,99.90
2019-05-30T00:34:36.357Z,99.90
2019-05-30T00:37:04.105Z,99.90
2019-05-30T00:39:31.675Z,99.90
2019-05-30T00:41:59.982Z,99.90
2019-05-30T00:44:27.285Z,99.90
2019-05-30T00:46:54.433Z,99.90
2019-05-30T00:49:21.659Z,99.90
2019-05-30T00:51:48.851Z,99.90
2019-05-30T00:54:15.985Z,99.90
2019-05-30T00:56:43.133Z,99.90
2019-05-30T00:59:10.214Z,99.90
2019-05-30T01:01:37.433Z,99.90
2019-05-30T01:04:04.992Z,99.90
2019-05-30T01:06:32.218Z,99.90
2019-05-30T01:08:59.353Z,99.90
2019-05-30T01:11:26.537Z,99.90
2019-05-30T01:13:56.949Z,99.90
2019-05-30T01:16:24.270Z,99.90
2019-05-30T01:18:51.584Z,99.90
2019-05-30T01:21:18.749Z,99.90
2019-05-30T01:23:47.006Z,99.90
2019-05-30T01:26:14.148Z,99.90
2019-05-30T01:28:41.309Z,99.90
2019-05-30T01:31:11.343Z,99.90
2019-05-30T01:33:37.595Z,99.90
2019-05-30T01:36:05.747Z,99.90
2019-05-30T01:38:33.077Z,99.90
2019-05-30T01:41:00.373Z,99.90
2019-05-30T01:43:27.533Z,99.90
2019-05-30T01:45:57.949Z,99.90
2019-05-30T01:48:25.407Z,99.90
2019-05-30T01:50:52.598Z,99.90
2019-05-30T01:53:19.863Z,99.90
2019-05-30T01:55:48.909Z,99.90
2019-05-30T01:58:16.578Z,99.90
2019-05-30T02:00:44.135Z,99.90
2019-05-30T02:03:11.714Z,99.90
2019-05-30T02:05:39.154Z,99.90
2019-05-30T02:08:07.285Z,99.90
2019-05-30T02:10:34.896Z,99.90
2019-05-30T02:13:03.356Z,99.90
2019-05-30T02:15:30.747Z,99.90
2019-05-30T02:17:59.435Z,99.90
2019-05-30T02:20:26.871Z,99.90
2019-05-30T02:22:54.622Z,99.90
2019-05-30T02:25:21.962Z,99.90
2019-05-30T02:27:49.285Z,99.90
2019-05-30T02:30:17.034Z,99.90
2019-05-30T02:32:44.290Z,99.90
2019-05-30T02:35:13.194Z,99.90
2019-05-30T02:37:40.334Z,99.90
2019-05-30T02:40:11.662Z,99.90
2019-05-30T02:42:36.601Z,99.90
2019-05-30T02:45:05.677Z,99.90
2019-05-30T02:47:33.274Z,99.90
2019-05-30T02:50:01.546Z,99.90
2019-05-30T02:52:29.543Z,99.90
2019-05-30T02:54:56.728Z,99.90
2019-05-30T02:57:23.926Z,99.90
2019-05-30T02:59:51.050Z,99.90
2019-05-30T03:02:18.234Z,99.90
2019-05-30T03:04:45.418Z,99.90
2019-05-30T03:07:13.034Z,99.90
2019-05-30T03:09:40.367Z,99.90
2019-05-30T03:12:09.128Z,99.90
2019-05-30T03:14:36.904Z,99.90
2019-05-30T03:17:05.288Z,99.90
2019-05-30T03:19:33.128Z,99.90
2019-05-30T03:22:02.811Z,99.90
2019-05-30T03:24:33.137Z,99.90
2019-05-30T03:27:00.393Z,99.90
2019-05-30T03:29:27.590Z,99.90
2019-05-30T03:31:54.890Z,99.90
2019-05-30T03:34:28.334Z,99.90
2019-05-30T03:36:52.227Z,99.90
2019-05-30T03:39:20.675Z,99.90
2019-05-30T03:41:55.244Z,99.90
2019-05-30T03:44:22.704Z,99.90
2019-05-30T03:46:52.063Z,99.90
2019-05-30T03:49:23.523Z,99.90
2019-05-30T03:51:52.315Z,99.90
2019-05-30T03:54:19.947Z,99.90
2019-05-30T03:56:49.491Z,99.90
2019-05-30T03:59:26.328Z,99.90
2019-05-30T04:02:08.941Z,99.90
2019-05-30T04:04:41.071Z,99.90
2019-05-30T04:07:12.015Z,99.90
2019-05-30T04:09:40.780Z,99.90
2019-05-30T04:12:20.132Z,99.90
2019-05-30T04:14:49.579Z,99.90
2019-05-30T04:17:18.309Z,99.90
2019-05-30T04:19:46.336Z,99.90
2019-05-30T04:22:13.570Z,99.90
2019-05-30T04:24:41.188Z,99.90
2019-05-30T04:27:09.890Z,99.90
2019-05-30T04:29:37.612Z,99.90
2019-05-30T04:32:04.975Z,99.90
2019-05-30T04:34:32.506Z,99.90
2019-05-30T04:36:59.912Z,99.90
2019-05-30T04:39:27.413Z,99.90
2019-05-30T04:41:54.701Z,99.90
2019-05-30T04:44:22.135Z,99.90
2019-05-30T04:46:49.864Z,99.90
2019-05-30T04:49:19.112Z,99.90
2019-05-30T04:51:46.489Z,99.90
2019-05-30T04:54:14.612Z,99.90
2019-05-30T04:56:42.992Z,99.90
2019-05-30T04:59:12.848Z,99.90
2019-05-30T05:01:40.651Z,99.90
2019-05-30T05:04:08.155Z,99.90
2019-05-30T05:06:35.306Z,99.90
2019-05-30T05:09:02.673Z,99.90
2019-05-30T05:11:30.966Z,99.90
2019-05-30T05:13:58.401Z,99.90
2019-05-30T05:16:34.799Z,99.90
2019-05-30T05:18:55.009Z,99.90
2019-05-30T05:21:23.144Z,99.90
2019-05-30T05:23:50.607Z,99.90
2019-05-30T05:26:19.534Z,99.90
2019-05-30T05:28:48.191Z,99.90
2019-05-30T05:31:16.495Z,99.90
2019-05-30T05:33:56.110Z,99.90
2019-05-30T05:36:14.749Z,99.90
2019-05-30T05:38:42.119Z,99.90
2019-05-30T05:41:09.398Z,99.90
2019-05-30T05:43:36.718Z,99.90
2019-05-30T05:46:04.238Z,99.90
2019-05-30T05:48:31.741Z,99.90
2019-05-30T05:50:59.270Z,99.90
2019-05-30T05:53:26.588Z,99.90
2019-05-30T05:55:53.846Z,99.90
2019-05-30T05:58:21.048Z,99.90
2019-05-30T06:00:48.285Z,99.90
2019-05-30T06:03:16.907Z,99.90
2019-05-30T06:05:53.055Z,99.90
2019-05-30T06:08:13.833Z,99.90
2019-05-30T06:10:41.926Z,99.90
2019-05-30T06:13:09.165Z,99.90
2019-05-30T06:15:36.413Z,99.90
2019-05-30T06:18:03.608Z,99.90
2019-05-30T06:20:30.843Z,99.90
2019-05-30T06:22:58.232Z,99.90
2019-05-30T06:25:30.372Z,99.90
2019-05-30T06:27:54.963Z,99.90
2019-05-30T06:30:22.393Z,99.90
2019-05-30T06:32:49.865Z,99.90
2019-05-30T06:35:18.663Z,99.90
2019-05-30T06:37:46.221Z,99.90
2019-05-30T06:40:14.363Z,99.90
2019-05-30T06:42:41.832Z,99.90
2019-05-30T06:45:09.427Z,99.90
2019-05-30T06:47:36.886Z,99.90
2019-05-30T06:50:06.139Z,99.90
2019-05-30T06:52:33.532Z,99.90
2019-05-30T06:55:01.153Z,99.90
2019-05-30T06:57:29.356Z,99.90
2019-05-30T06:59:56.550Z,99.90
2019-05-30T07:02:24.245Z,99.90
2019-05-30T07:04:52.913Z,99.90
2019-05-30T07:07:20.932Z,99.90
2019-05-30T07:09:49.550Z,99.90
2019-05-30T07:12:17.065Z,99.90
2019-05-30T07:14:44.630Z,99.90
2019-05-30T07:17:13.036Z,99.60
2019-05-30T07:19:40.316Z,98.70
2019-05-30T07:22:07.690Z,99.00
2019-05-30T07:24:35.217Z,99.60
2019-05-30T07:27:02.814Z,99.40
2019-05-30T07:29:30.222Z,97.90
2019-05-30T07:31:57.823Z,96.70
2019-05-30T07:34:28.040Z,96.20
2019-05-30T07:36:55.352Z,94.10
2019-05-30T07:39:22.596Z,91.60
2019-05-30T07:42:05.345Z,91.10
2019-05-30T07:44:19.404Z,91.00
2019-05-30T07:46:46.798Z,89.00
2019-05-30T07:49:14.310Z,88.00
2019-05-30T07:51:41.608Z,82.50
2019-05-30T07:54:08.959Z,80.40
2019-05-30T07:56:38.013Z,72.80
2019-05-30T07:59:05.755Z,67.70
2019-05-30T08:01:33.182Z,67.90
2019-05-30T08:04:00.651Z,65.60
2019-05-30T08:06:39.847Z,60.30
2019-05-30T08:09:07.222Z,59.60
2019-05-30T08:11:35.079Z,57.60
2019-05-30T08:14:02.583Z,58.30
2019-05-30T08:16:31.178Z,57.60
2019-05-30T08:18:58.663Z,53.70
2019-05-30T08:21:26.111Z,53.60
2019-05-30T08:23:53.939Z,53.90
2019-05-30T08:26:21.294Z,50.90
2019-05-30T08:28:50.801Z,49.30
2019-05-30T08:31:18.265Z,48.90
2019-05-30T08:33:47.440Z,48.40
2019-05-30T08:36:14.975Z,46.80
2019-05-30T08:38:42.528Z,45.70
2019-05-30T08:41:09.982Z,46.20
2019-05-30T08:43:39.663Z,46.40
2019-05-30T08:46:07.144Z,46.20
2019-05-30T08:48:34.648Z,46.40
2019-05-30T08:51:02.102Z,47.30
2019-05-30T08:53:30.195Z,45.10
2019-05-30T08:55:57.607Z,45.00
2019-05-30T08:58:25.183Z,44.80
2019-05-30T09:00:52.587Z,44.80
2019-05-30T09:03:20.282Z,45.00
2019-05-30T09:06:02.735Z,44.20
2019-05-30T09:08:18.979Z,44.70
2019-05-30T09:10:47.391Z,44.70
2019-05-30T09:13:14.719Z,45.00
2019-05-30T09:15:43.011Z,44.00
2019-05-30T09:18:10.646Z,44.90
2019-05-30T09:20:41.957Z,44.40
2019-05-30T09:23:10.010Z,44.10
2019-05-30T09:25:38.896Z,44.40
2019-05-30T09:28:07.614Z,44.00
2019-05-30T09:30:35.782Z,40.70
2019-05-30T09:33:05.240Z,38.80
2019-05-30T09:35:34.415Z,36.60
2019-05-30T09:38:13.699Z,35.50
2019-05-30T09:40:49.544Z,34.90
2019-05-30T09:43:20.067Z,35.30
2019-05-30T09:45:50.602Z,35.00
2019-05-30T09:48:18.349Z,32.20
2019-05-30T09:50:47.129Z,32.40
2019-05-30T09:53:15.379Z,31.20
2019-05-30T09:55:48.302Z,30.80
2019-05-30T09:58:18.510Z,31.60
2019-05-30T10:00:47.281Z,32.70
2019-05-30T10:03:28.185Z,32.00
2019-05-30T10:06:08.304Z,31.90
2019-05-30T10:08:41.064Z,31.80
2019-05-30T10:11:15.888Z,31.00
2019-05-30T10:13:42.609Z,32.10
2019-05-30T10:16:10.631Z,32.00
2019-05-30T10:18:47.322Z,32.60
2019-05-30T10:21:34.370Z,30.80
2019-05-30T10:24:18.670Z,32.90
2019-05-30T10:27:04.335Z,33.30
2019-05-30T10:29:40.339Z,31.60
2019-05-30T10:32:11.794Z,31.40
2019-05-30T10:34:40.203Z,31.10
2019-05-30T10:37:16.795Z,32.00
2019-05-30T10:39:45.994Z,31.40
2019-05-30T10:42:18.665Z,30.20
2019-05-30T10:44:48.304Z,29.80
2019-05-30T10:47:17.220Z,28.10
2019-05-30T10:49:49.727Z,27.50
2019-05-30T10:52:17.926Z,26.90
2019-05-30T10:54:46.708Z,26.30
2019-05-30T10:57:14.492Z,26.70
2019-05-30T10:59:52.892Z,28.40
2019-05-30T11:02:20.999Z,29.30
2019-05-30T11:04:50.497Z,29.00
2019-05-30T11:07:27.820Z,29.40
2019-05-30T11:10:04.772Z,29.60
2019-05-30T11:12:32.746Z,29.80
2019-05-30T11:15:00.632Z,29.60
2019-05-30T11:17:28.364Z,29.80
2019-05-30T11:19:56.148Z,31.60
2019-05-30T11:22:24.021Z,32.00
2019-05-30T11:24:52.734Z,32.10
2019-05-30T11:27:21.979Z,32.90
2019-05-30T11:29:50.565Z,33.00
2019-05-30T11:32:22.114Z,32.40
2019-05-30T11:34:51.133Z,30.00
2019-05-30T11:37:19.325Z,29.40
2019-05-30T11:39:49.197Z,29.40
2019-05-30T11:42:16.882Z,28.80
2019-05-30T11:44:44.590Z,30.10
2019-05-30T11:47:18.399Z,29.70
2019-05-30T11:49:46.055Z,27.90
2019-05-30T11:52:13.866Z,26.80
2019-05-30T11:54:41.583Z,26.60
2019-05-30T11:57:15.161Z,27.00
2019-05-30T11:59:50.020Z,27.60
2019-05-30T12:02:24.839Z,28.70
2019-05-30T12:04:52.629Z,29.00
2019-05-30T12:07:35.391Z,28.70
2019-05-30T12:09:52.850Z,27.30
2019-05-30T12:12:20.478Z,26.00
2019-05-30T12:14:48.131Z,26.50
2019-05-30T12:17:15.776Z,27.30
2019-05-30T12:19:49.519Z,27.80
2019-05-30T12:22:19.206Z,27.70
2019-05-30T12:24:46.821Z,27.80
2019-05-30T12:27:14.684Z,28.70
2019-05-30T12:29:42.232Z,27.90
2019-05-30T12:32:10.255Z,28.70
2019-05-30T12:34:38.274Z,28.80
2019-05-30T12:37:05.959Z,28.00
2019-05-30T12:39:34.941Z,27.00
2019-05-30T12:42:03.335Z,27.70
2019-05-30T12:44:31.534Z,27.30
2019-05-30T12:46:59.346Z,27.90
2019-05-30T12:49:27.578Z,29.20
2019-05-30T12:51:58.387Z,29.50
2019-05-30T12:54:26.213Z,30.00
2019-05-30T12:56:54.573Z,30.20
2019-05-30T12:59:24.936Z,28.80
2019-05-30T13:01:52.695Z,28.60
2019-05-30T13:04:21.367Z,28.90
2019-05-30T13:06:53.833Z,30.70
2019-05-30T13:09:19.673Z,32.20
2019-05-30T13:11:47.515Z,31.70
2019-05-30T13:14:15.301Z,30.10
2019-05-30T13:16:42.897Z,29.90
2019-05-30T13:19:12.636Z,30.80
2019-05-30T13:21:40.440Z,30.60
2019-05-30T13:24:08.679Z,30.00
2019-05-30T13:26:36.465Z,30.00
2019-05-30T13:29:04.504Z,30.30
2019-05-30T13:31:32.158Z,30.00
2019-05-30T13:34:01.072Z,29.80
2019-05-30T13:36:28.953Z,30.00
2019-05-30T13:38:57.137Z,29.00
2019-05-30T13:41:24.931Z,29.20
2019-05-30T13:43:52.723Z,29.10
2019-05-30T13:46:20.438Z,29.10
2019-05-30T13:48:50.234Z,29.90
2019-05-30T13:51:18.082Z,30.40
2019-05-30T13:53:45.934Z,28.80
2019-05-30T13:56:13.625Z,28.90
2019-05-30T13:58:41.505Z,30.20
2019-05-30T14:01:12.385Z,29.90
2019-05-30T14:03:38.829Z,30.00
2019-05-30T14:06:06.506Z,29.70
2019-05-30T14:08:41.706Z,29.60
2019-05-30T14:11:07.038Z,30.00
2019-05-30T14:13:35.007Z,30.60
2019-05-30T14:16:04.861Z,30.80
2019-05-30T14:18:32.721Z,32.00
2019-05-30T14:21:01.908Z,32.40
2019-05-30T14:23:30.321Z,31.90
2019-05-30T14:25:59.034Z,31.10
2019-05-30T14:28:32.938Z,30.20
2019-05-30T14:31:03.588Z,29.00
2019-05-30T14:33:36.726Z,30.00
2019-05-30T14:36:10.202Z,32.50
2019-05-30T14:38:34.648Z,33.10
2019-05-30T14:41:02.906Z,34.40
2019-05-30T14:43:30.954Z,34.20
2019-05-30T14:45:59.103Z,32.70
2019-05-30T14:48:27.921Z,32.10
2019-05-30T14:50:56.098Z,32.60
2019-05-30T14:53:24.155Z,31.30
2019-05-30T14:55:51.941Z,32.30
2019-05-30T14:58:19.666Z,33.40
2019-05-30T15:00:47.582Z,34.90
2019-05-30T15:03:16.032Z,34.30
2019-05-30T15:05:44.097Z,33.20
2019-05-30T15:08:12.549Z,33.20
2019-05-30T15:10:40.565Z,34.40
2019-05-30T15:13:09.713Z,36.20
2019-05-30T15:15:37.784Z,35.80
2019-05-30T15:18:05.476Z,34.70
2019-05-30T15:20:33.249Z,34.30
2019-05-30T15:23:03.809Z,33.90
2019-05-30T15:25:31.760Z,33.80
2019-05-30T15:27:59.793Z,34.80
2019-05-30T15:30:27.973Z,35.10
2019-05-30T15:32:56.587Z,35.40
2019-05-30T15:35:24.829Z,34.90
2019-05-30T15:38:00.416Z,35.60
2019-05-30T15:40:28.720Z,37.60
2019-05-30T15:42:56.595Z,37.80
2019-05-30T15:45:24.343Z,36.80
2019-05-30T15:47:53.151Z,36.60
2019-05-30T15:50:21.026Z,35.80
2019-05-30T15:52:48.672Z,34.80
2019-05-30T15:55:17.439Z,35.20
2019-05-30T15:57:47.109Z,35.20
2019-05-30T16:00:16.214Z,35.20
2019-05-30T16:02:44.396Z,35.70
2019-05-30T16:05:14.608Z,36.40
2019-05-30T16:07:42.785Z,36.00
2019-05-30T16:10:11.002Z,34.80
2019-05-30T16:12:39.062Z,35.60
2019-05-30T16:15:07.789Z,37.10
2019-05-30T16:17:45.301Z,37.90
2019-05-30T16:20:13.865Z,38.50
2019-05-30T16:22:42.844Z,38.70
2019-05-30T16:25:11.959Z,39.60
2019-05-30T16:27:39.901Z,40.20
2019-05-30T16:30:09.276Z,40.10
2019-05-30T16:32:37.536Z,39.50
2019-05-30T16:35:06.990Z,39.80
2019-05-30T16:37:34.883Z,39.70
2019-05-30T16:40:06.499Z,39.80
2019-05-30T16:42:33.032Z,40.80
2019-05-30T16:45:04.841Z,41.00
2019-05-30T16:47:32.694Z,41.10
2019-05-30T16:50:06.071Z,41.40
2019-05-30T16:52:34.120Z,41.30
2019-05-30T16:55:05.268Z,41.50
2019-05-30T16:57:33.207Z,40.90
2019-05-30T17:00:08.442Z,41.20
2019-05-30T17:02:36.849Z,41.10
2019-05-30T17:05:06.234Z,41.10
2019-05-30T17:07:34.175Z,41.20
2019-05-30T17:10:21.392Z,41.40
2019-05-30T17:12:36.370Z,41.90
2019-05-30T17:15:04.395Z,42.20
2019-05-30T17:17:32.386Z,42.90
2019-05-30T17:20:00.626Z,42.80
2019-05-30T17:22:30.565Z,42.70
2019-05-30T17:25:02.031Z,43.10
2019-05-30T17:27:30.370Z,42.90
2019-05-30T17:30:04.091Z,43.70
2019-05-30T17:32:32.100Z,44.00
2019-05-30T17:35:03.086Z,44.40
2019-05-30T17:37:33.159Z,44.70
2019-05-30T17:40:01.421Z,45.40
2019-05-30T17:42:29.953Z,45.50
2019-05-30T17:44:59.841Z,45.70
2019-05-30T17:47:30.259Z,45.90
2019-05-30T17:49:58.531Z,45.90
2019-05-30T17:52:27.899Z,46.00
2019-05-30T17:54:58.915Z,46.50
2019-05-30T17:57:28.117Z,46.80
2019-05-30T17:59:58.762Z,47.00
2019-05-30T18:02:26.658Z,47.10
2019-05-30T18:04:54.470Z,47.80
2019-05-30T18:07:23.110Z,48.00
2019-05-30T18:09:51.068Z,48.20
2019-05-30T18:12:19.017Z,48.80
2019-05-30T18:14:46.961Z,49.10
2019-05-30T18:17:15.087Z,49.30
2019-05-30T18:19:49.210Z,49.90
2019-05-30T18:22:32.370Z,50.50
2019-05-30T18:25:05.215Z,50.50
2019-05-30T18:27:33.070Z,51.40
2019-05-30T18:30:06.153Z,51.90
2019-05-30T18:32:35.081Z,52.30
2019-05-30T18:35:03.783Z,52.40
2019-05-30T18:37:32.503Z,52.70
2019-05-30T18:40:01.337Z,53.60
2019-05-30T18:42:29.402Z,54.00
2019-05-30T18:44:57.104Z,54.60
2019-05-30T18:47:26.957Z,54.70
2019-05-30T18:49:57.115Z,55.10
2019-05-30T18:52:28.316Z,55.50
2019-05-30T18:54:57.916Z,55.90
2019-05-30T18:57:26.610Z,56.50
2019-05-30T18:59:54.714Z,57.60
2019-05-30T19:02:22.513Z,58.50
2019-05-30T19:04:50.374Z,59.50
2019-05-30T19:07:18.134Z,60.40
2019-05-30T19:09:45.773Z,60.80
2019-05-30T19:12:13.485Z,61.40
2019-05-30T19:14:41.242Z,62.10
2019-05-30T19:17:08.941Z,63.50
2019-05-30T19:19:36.796Z,63.00
2019-05-30T19:22:05.126Z,63.50
2019-05-30T19:24:37.109Z,64.80
2019-05-30T19:27:05.271Z,66.90
2019-05-30T19:29:34.910Z,67.50
2019-05-30T19:32:03.344Z,68.40
2019-05-30T19:34:34.868Z,69.90
2019-05-30T19:37:02.794Z,69.40
2019-05-30T19:39:31.479Z,68.40
2019-05-30T19:42:03.311Z,69.00
2019-05-30T19:44:31.964Z,69.50
2019-05-30T19:47:00.592Z,69.00
2019-05-30T19:49:30.325Z,69.80
2019-05-30T19:51:59.505Z,73.00
2019-05-30T19:54:28.922Z,74.60
2019-05-30T19:56:56.816Z,75.20
2019-05-30T19:59:24.613Z,74.30
2019-05-30T20:01:52.982Z,74.60
2019-05-30T20:04:21.682Z,74.10
2019-05-30T20:06:50.757Z,75.00
2019-05-30T20:09:19.309Z,76.70
2019-05-30T20:12:02.055Z,79.20
2019-05-30T20:14:17.554Z,77.90
2019-05-30T20:16:45.402Z,78.40
2019-05-30T20:19:14.476Z,78.80
2019-05-30T20:21:42.397Z,79.50
2019-05-30T20:24:11.220Z,80.10
2019-05-30T20:26:40.601Z,81.70
2019-05-30T20:29:08.633Z,83.50
2019-05-30T20:31:37.326Z,84.20
2019-05-30T20:34:05.716Z,84.00
2019-05-30T20:36:34.455Z,86.00
2019-05-30T20:39:10.012Z,87.60
2019-05-30T20:41:38.808Z,85.70
2019-05-30T20:44:08.561Z,86.60
2019-05-30T20:46:43.649Z,86.70
2019-05-30T20:49:11.838Z,87.50
2019-05-30T20:51:41.210Z,88.40
2019-05-30T20:54:10.078Z,89.70
2019-05-30T20:56:39.474Z,90.10
2019-05-30T20:59:10.553Z,90.50
2019-05-30T21:01:39.669Z,91.30
2019-05-30T21:04:08.151Z,92.70
2019-05-30T21:06:41.433Z,92.90
2019-05-30T21:09:27.769Z,93.90
2019-05-30T21:11:48.379Z,94.50
2019-05-30T21:14:16.953Z,95.00
2019-05-30T21:16:46.313Z,94.70
2019-05-30T21:19:18.077Z,93.90
2019-05-30T21:21:46.412Z,93.70
2019-05-30T21:24:19.125Z,94.00
2019-05-30T21:26:52.679Z,95.70
2019-05-30T21:29:20.921Z,95.20
2019-05-30T21:31:49.726Z,95.20
2019-05-30T21:34:17.621Z,95.60
2019-05-30T21:36:46.031Z,96.20
2019-05-30T21:39:14.225Z,96.20
2019-05-30T21:41:44.425Z,97.20
2019-05-30T21:44:13.845Z,98.30
2019-05-30T21:46:42.638Z,98.60
2019-05-30T21:49:11.547Z,99.00
2019-05-30T21:51:41.172Z,99.60
2019-05-30T21:54:09.417Z,98.90
2019-05-30T21:56:39.920Z,99.60
2019-05-30T21:59:08.061Z,99.60
2019-05-30T22:01:40.334Z,99.90
2019-05-30T22:04:09.144Z,99.90
2019-05-30T22:06:37.884Z,99.90
2019-05-30T22:09:08.944Z,99.90
2019-05-30T22:11:37.931Z,99.90
2019-05-30T22:14:09.041Z,99.90
2019-05-30T22:16:37.046Z,99.90
2019-05-30T22:19:05.910Z,99.90
2019-05-30T22:21:33.948Z,99.90
2019-05-30T22:24:05.984Z,99.90
2019-05-30T22:26:33.910Z,99.90
2019-05-30T22:29:02.118Z,99.90
2019-05-30T22:31:31.967Z,99.90
2019-05-30T22:34:01.185Z,99.90
2019-05-30T22:36:29.388Z,99.90
2019-05-30T22:38:57.867Z,99.90
2019-05-30T22:41:26.256Z,99.90
2019-05-30T22:43:55.109Z,99.90
2019-05-30T22:46:23.369Z,99.90
2019-05-30T22:48:53.126Z,99.90
2019-05-30T22:51:21.087Z,99.90
2019-05-30T22:53:49.024Z,99.90
2019-05-30T22:56:16.823Z,99.90
2019-05-30T22:58:45.570Z,99.90
2019-05-30T23:01:13.273Z,99.90
2019-05-30T23:03:41.734Z,99.90
2019-05-30T23:06:09.878Z,99.90
2019-05-30T23:08:40.460Z,99.90
2019-05-30T23:11:18.558Z,99.90
2019-05-30T23:13:54.018Z,99.90
2019-05-30T23:16:21.913Z,99.90
2019-05-30T23:18:51.081Z,99.90
2019-05-30T23:21:21.328Z,99.90
2019-05-30T23:23:49.271Z,99.90
2019-05-30T23:26:17.397Z,99.90
2019-05-30T23:28:45.459Z,99.90
2019-05-30T23:31:13.467Z,99.90
2019-05-30T23:33:41.778Z,99.90
2019-05-30T23:36:16.008Z,99.90
2019-05-30T23:38:57.175Z,99.90
2019-05-30T23:41:37.813Z,99.90
2019-05-30T23:44:19.216Z,99.90
2019-05-30T23:46:47.482Z,99.90
2019-05-30T23:49:15.534Z,99.90
2019-05-30T23:51:43.652Z,99.90
2019-05-30T23:54:18.961Z,99.90
2019-05-30T23:56:52.564Z,99.90
2019-05-30T23:59:21.614Z,99.90
